createdAt,value
2019-03-27T00:00:26.951Z,6.61
2019-03-27T00:01:26.952Z,6.62
2019-03-27T00:02:26.929Z,6.61
2019-03-27T00:03:26.919Z,6.63
2019-03-27T00:04:26.906Z,6.63
2019-03-27T00:05:26.895Z,6.68
2019-03-27T00:06:26.886Z,6.63
2019-03-27T00:07:26.883Z,6.56
2019-03-27T00:08:26.862Z,6.61
2019-03-27T00:09:26.852Z,6.63
2019-03-27T00:10:26.841Z,6.58
2019-03-27T00:11:26.829Z,6.56
2019-03-27T00:12:26.825Z,6.51
2019-03-27T00:13:26.826Z,6.50
2019-03-27T00:14:26.796Z,6.59
2019-03-27T00:15:26.788Z,6.47
2019-03-27T00:16:26.775Z,6.51
2019-03-27T00:17:26.764Z,6.44
2019-03-27T00:18:26.752Z,6.41
2019-03-27T00:19:26.754Z,6.38
2019-03-27T00:20:26.731Z,6.48
2019-03-27T00:21:26.720Z,6.44
2019-03-27T00:22:26.709Z,6.38
2019-03-27T00:23:26.700Z,6.44
2019-03-27T00:24:26.687Z,6.41
2019-03-27T00:25:26.690Z,6.38
2019-03-27T00:26:26.666Z,6.30
2019-03-27T00:27:26.658Z,6.36
2019-03-27T00:28:26.643Z,6.35
2019-03-27T00:29:26.632Z,6.26
2019-03-27T00:30:26.625Z,6.32
2019-03-27T00:31:26.620Z,6.32
2019-03-27T00:32:26.599Z,6.19
2019-03-27T00:33:26.592Z,6.25
2019-03-27T00:34:26.579Z,6.22
2019-03-27T00:35:26.566Z,6.18
2019-03-27T00:36:26.555Z,6.19
2019-03-27T00:37:26.555Z,6.22
2019-03-27T00:38:26.534Z,6.16
2019-03-27T00:39:26.522Z,6.19
2019-03-27T00:40:26.513Z,6.11
2019-03-27T00:41:26.502Z,6.06
2019-03-27T00:42:26.495Z,6.10
2019-03-27T00:43:26.490Z,6.11
2019-03-27T00:44:26.473Z,6.14
2019-03-27T00:45:27.297Z,6.11
2019-03-27T00:46:26.448Z,6.07
2019-03-27T00:47:26.439Z,6.11
2019-03-27T00:48:26.496Z,6.07
2019-03-27T00:49:26.427Z,6.09
2019-03-27T00:50:26.407Z,6.04
2019-03-27T00:51:26.397Z,6.11
2019-03-27T00:52:26.383Z,6.13
2019-03-27T00:53:26.373Z,6.10
2019-03-27T00:54:26.363Z,6.00
2019-03-27T00:55:26.380Z,6.01
2019-03-27T00:56:26.341Z,6.03
2019-03-27T00:57:26.333Z,6.06
2019-03-27T00:58:26.320Z,6.03
2019-03-27T00:59:26.311Z,5.95
2019-03-27T01:00:26.303Z,5.93
2019-03-27T01:01:26.304Z,5.96
2019-03-27T01:02:26.283Z,6.00
2019-03-27T01:03:26.269Z,5.95
2019-03-27T01:04:26.256Z,5.96
2019-03-27T01:05:26.257Z,5.95
2019-03-27T01:06:26.240Z,5.89
2019-03-27T01:07:26.236Z,5.96
2019-03-27T01:08:26.215Z,5.93
2019-03-27T01:09:26.205Z,5.91
2019-03-27T01:10:26.197Z,5.89
2019-03-27T01:11:26.183Z,5.95
2019-03-27T01:12:26.186Z,6.00
2019-03-27T01:13:26.177Z,6.00
2019-03-27T01:14:26.151Z,5.93
2019-03-27T01:15:38.864Z,5.95
2019-03-27T01:16:27.133Z,5.88
2019-03-27T01:17:26.127Z,5.95
2019-03-27T01:18:26.111Z,5.96
2019-03-27T01:19:26.119Z,5.92
2019-03-27T01:20:26.089Z,5.98
2019-03-27T01:21:26.078Z,5.93
2019-03-27T01:22:26.139Z,5.89
2019-03-27T01:23:26.057Z,5.92
2019-03-27T01:24:26.045Z,5.91
2019-03-27T01:25:26.047Z,5.93
2019-03-27T01:26:26.032Z,5.89
2019-03-27T01:27:26.030Z,5.86
2019-03-27T01:28:26.005Z,5.89
2019-03-27T01:29:26.021Z,5.89
2019-03-27T01:30:26.008Z,5.93
2019-03-27T01:31:25.997Z,5.88
2019-03-27T01:32:25.977Z,5.89
2019-03-27T01:33:25.951Z,5.85
2019-03-27T01:34:25.957Z,5.86
2019-03-27T01:35:25.941Z,5.85
2019-03-27T01:36:25.920Z,5.86
2019-03-27T01:37:25.919Z,5.78
2019-03-27T01:38:28.802Z,5.83
2019-03-27T01:39:25.900Z,5.89
2019-03-27T01:40:25.894Z,5.83
2019-03-27T01:41:25.867Z,5.77
2019-03-27T01:42:25.865Z,5.78
2019-03-27T01:43:25.857Z,5.88
2019-03-27T01:44:25.837Z,5.74
2019-03-27T01:45:25.842Z,5.73
2019-03-27T01:46:25.814Z,5.74
2019-03-27T01:47:25.812Z,5.74
2019-03-27T01:48:25.804Z,5.67
2019-03-27T01:49:25.792Z,5.75
2019-03-27T01:50:25.775Z,5.74
2019-03-27T01:51:25.763Z,5.74
2019-03-27T01:52:25.751Z,5.71
2019-03-27T01:53:25.741Z,5.68
2019-03-27T01:54:25.734Z,5.66
2019-03-27T01:55:25.742Z,5.64
2019-03-27T01:56:25.714Z,5.66
2019-03-27T01:57:25.699Z,5.64
2019-03-27T01:58:25.755Z,5.68
2019-03-27T01:59:25.679Z,5.57
2019-03-27T02:00:25.666Z,5.52
2019-03-27T02:01:25.672Z,5.48
2019-03-27T02:02:25.650Z,5.49
2019-03-27T02:03:25.636Z,5.49
2019-03-27T02:04:25.628Z,5.46
2019-03-27T02:05:25.618Z,5.40
2019-03-27T02:06:25.603Z,5.45
2019-03-27T02:07:25.613Z,5.50
2019-03-27T02:08:25.591Z,5.55
2019-03-27T02:09:25.572Z,5.41
2019-03-27T02:10:25.560Z,5.48
2019-03-27T02:11:25.551Z,5.43
2019-03-27T02:12:25.546Z,5.45
2019-03-27T02:13:25.547Z,5.43
2019-03-27T02:14:25.544Z,5.52
2019-03-27T02:15:25.512Z,5.46
2019-03-27T02:16:25.510Z,5.49
2019-03-27T02:17:25.503Z,5.50
2019-03-27T02:18:25.474Z,5.46
2019-03-27T02:19:25.482Z,5.57
2019-03-27T02:20:25.456Z,5.53
2019-03-27T02:21:25.452Z,5.53
2019-03-27T02:22:25.430Z,5.48
2019-03-27T02:23:25.420Z,5.48
2019-03-27T02:24:25.411Z,5.53
2019-03-27T02:25:25.413Z,5.50
2019-03-27T02:26:25.388Z,5.50
2019-03-27T02:27:25.380Z,5.56
2019-03-27T02:28:25.370Z,5.49
2019-03-27T02:29:25.385Z,5.63
2019-03-27T02:30:25.411Z,5.57
2019-03-27T02:31:25.374Z,5.55
2019-03-27T02:32:25.346Z,5.57
2019-03-27T02:33:25.314Z,5.63
2019-03-27T02:34:25.304Z,5.63
2019-03-27T02:35:25.292Z,5.59
2019-03-27T02:36:25.283Z,5.66
2019-03-27T02:37:25.285Z,5.56
2019-03-27T02:38:25.262Z,5.74
2019-03-27T02:39:25.248Z,5.73
2019-03-27T02:40:25.251Z,5.71
2019-03-27T02:41:25.227Z,5.71
2019-03-27T02:42:25.218Z,5.68
2019-03-27T02:43:25.226Z,5.70
2019-03-27T02:44:25.202Z,5.75
2019-03-27T02:45:25.193Z,5.77
2019-03-27T02:46:25.653Z,5.77
2019-03-27T02:47:25.167Z,5.78
2019-03-27T02:48:25.155Z,5.78
2019-03-27T02:49:25.156Z,5.77
2019-03-27T02:50:25.132Z,5.81
2019-03-27T02:51:25.133Z,5.82
2019-03-27T02:52:25.115Z,5.86
2019-03-27T02:53:25.106Z,5.89
2019-03-27T02:54:25.090Z,5.92
2019-03-27T02:55:25.116Z,5.83
2019-03-27T02:56:25.069Z,5.88
2019-03-27T02:57:25.077Z,5.83
2019-03-27T02:58:25.047Z,5.86
2019-03-27T02:59:25.041Z,5.86
2019-03-27T03:00:25.028Z,5.88
2019-03-27T03:01:25.028Z,5.89
2019-03-27T03:02:25.004Z,5.83
2019-03-27T03:03:24.997Z,5.83
2019-03-27T03:04:24.984Z,5.89
2019-03-27T03:05:24.973Z,5.86
2019-03-27T03:06:24.963Z,5.89
2019-03-27T03:07:24.967Z,6.01
2019-03-27T03:08:24.944Z,5.95
2019-03-27T03:09:24.944Z,5.92
2019-03-27T03:10:24.922Z,5.91
2019-03-27T03:11:24.911Z,5.89
2019-03-27T03:12:24.901Z,5.82
2019-03-27T03:13:24.913Z,5.96
2019-03-27T03:14:24.879Z,5.86
2019-03-27T03:15:24.879Z,5.82
2019-03-27T03:16:40.882Z,5.88
2019-03-27T03:17:25.847Z,5.92
2019-03-27T03:18:24.847Z,5.82
2019-03-27T03:19:24.843Z,5.78
2019-03-27T03:20:24.816Z,5.82
2019-03-27T03:21:24.804Z,5.86
2019-03-27T03:22:24.795Z,5.82
2019-03-27T03:23:24.784Z,5.86
2019-03-27T03:24:24.773Z,5.75
2019-03-27T03:25:24.786Z,5.75
2019-03-27T03:26:24.755Z,5.74
2019-03-27T03:27:24.742Z,5.75
2019-03-27T03:28:24.737Z,5.82
2019-03-27T03:29:24.721Z,5.75
2019-03-27T03:30:24.712Z,5.78
2019-03-27T03:31:24.712Z,5.81
2019-03-27T03:32:24.689Z,5.88
2019-03-27T03:33:24.678Z,5.82
2019-03-27T03:34:24.668Z,5.86
2019-03-27T03:35:24.665Z,5.77
2019-03-27T03:36:24.646Z,5.85
2019-03-27T03:37:24.650Z,5.85
2019-03-27T03:38:24.627Z,5.77
2019-03-27T03:39:24.615Z,5.75
2019-03-27T03:40:24.674Z,5.82
2019-03-27T03:41:24.593Z,5.81
2019-03-27T03:42:24.582Z,5.77
2019-03-27T03:43:24.591Z,5.83
2019-03-27T03:44:24.563Z,5.74
2019-03-27T03:45:24.549Z,5.75
2019-03-27T03:46:24.539Z,5.75
2019-03-27T03:47:24.528Z,5.81
2019-03-27T03:48:24.517Z,5.77
2019-03-27T03:49:24.517Z,5.85
2019-03-27T03:50:24.496Z,5.74
2019-03-27T03:51:24.485Z,5.75
2019-03-27T03:52:24.475Z,5.75
2019-03-27T03:53:24.464Z,5.73
2019-03-27T03:54:24.457Z,5.81
2019-03-27T03:55:24.454Z,5.74
2019-03-27T03:56:24.437Z,5.77
2019-03-27T03:57:24.429Z,5.77
2019-03-27T03:58:24.421Z,5.82
2019-03-27T03:59:24.400Z,5.85
2019-03-27T04:00:24.393Z,5.85
2019-03-27T04:01:24.397Z,5.83
2019-03-27T04:02:24.373Z,5.86
2019-03-27T04:03:24.359Z,5.83
2019-03-27T04:04:24.347Z,5.83
2019-03-27T04:05:24.343Z,5.85
2019-03-27T04:06:24.332Z,5.91
2019-03-27T04:07:24.330Z,5.91
2019-03-27T04:08:24.496Z,5.82
2019-03-27T04:09:24.307Z,5.92
2019-03-27T04:10:24.361Z,5.93
2019-03-27T04:11:24.275Z,5.88
2019-03-27T04:12:24.269Z,5.93
2019-03-27T04:13:24.265Z,5.83
2019-03-27T04:14:24.242Z,5.92
2019-03-27T04:15:24.233Z,5.83
2019-03-27T04:16:24.220Z,5.88
2019-03-27T04:17:24.210Z,5.91
2019-03-27T04:18:24.207Z,5.86
2019-03-27T04:19:24.199Z,5.85
2019-03-27T04:20:24.177Z,5.86
2019-03-27T04:21:26.964Z,5.85
2019-03-27T04:22:24.156Z,5.92
2019-03-27T04:23:24.147Z,5.83
2019-03-27T04:24:24.135Z,5.92
2019-03-27T04:25:24.154Z,5.85
2019-03-27T04:26:24.115Z,5.95
2019-03-27T04:27:24.106Z,5.95
2019-03-27T04:28:24.110Z,5.91
2019-03-27T04:29:24.084Z,5.98
2019-03-27T04:30:24.071Z,5.89
2019-03-27T04:31:24.069Z,5.86
2019-03-27T04:32:24.050Z,5.92
2019-03-27T04:33:24.043Z,5.92
2019-03-27T04:34:24.028Z,5.89
2019-03-27T04:35:24.023Z,5.98
2019-03-27T04:36:24.007Z,5.95
2019-03-27T04:37:24.008Z,6.07
2019-03-27T04:38:24.004Z,6.06
2019-03-27T04:39:23.975Z,5.96
2019-03-27T04:40:23.963Z,6.06
2019-03-27T04:41:23.954Z,6.01
2019-03-27T04:42:23.946Z,6.06
2019-03-27T04:43:23.940Z,6.09
2019-03-27T04:44:23.919Z,6.03
2019-03-27T04:45:23.908Z,5.96
2019-03-27T04:46:23.900Z,6.11
2019-03-27T04:47:31.994Z,6.10
2019-03-27T04:48:24.899Z,6.07
2019-03-27T04:49:23.867Z,6.06
2019-03-27T04:50:23.854Z,6.01
2019-03-27T04:51:23.870Z,6.03
2019-03-27T04:52:23.832Z,6.04
2019-03-27T04:53:23.821Z,6.07
2019-03-27T04:54:26.936Z,6.04
2019-03-27T04:55:23.807Z,6.07
2019-03-27T04:56:23.788Z,6.06
2019-03-27T04:57:23.777Z,6.01
2019-03-27T04:58:23.767Z,6.04
2019-03-27T04:59:23.755Z,6.00
2019-03-27T05:00:23.756Z,6.06
2019-03-27T05:01:23.734Z,6.06
2019-03-27T05:02:23.728Z,6.09
2019-03-27T05:03:23.712Z,6.03
2019-03-27T05:04:23.702Z,6.09
2019-03-27T05:05:23.689Z,6.04
2019-03-27T05:06:23.690Z,6.04
2019-03-27T05:07:23.670Z,6.03
2019-03-27T05:08:23.658Z,5.98
2019-03-27T05:09:23.648Z,6.00
2019-03-27T05:10:23.639Z,5.95
2019-03-27T05:11:23.624Z,5.95
2019-03-27T05:12:23.627Z,5.92
2019-03-27T05:13:23.602Z,5.88
2019-03-27T05:14:23.599Z,5.92
2019-03-27T05:15:23.580Z,5.95
2019-03-27T05:16:23.577Z,5.91
2019-03-27T05:17:23.559Z,5.96
2019-03-27T05:18:23.558Z,5.88
2019-03-27T05:19:23.538Z,5.95
2019-03-27T05:20:23.556Z,5.91
2019-03-27T05:21:23.515Z,5.86
2019-03-27T05:22:23.509Z,6.01
2019-03-27T05:23:23.494Z,6.01
2019-03-27T05:24:23.507Z,6.00
2019-03-27T05:25:23.473Z,5.96
2019-03-27T05:26:23.463Z,5.88
2019-03-27T05:27:23.451Z,5.89
2019-03-27T05:28:23.442Z,5.95
2019-03-27T05:29:23.429Z,5.93
2019-03-27T05:30:23.429Z,6.01
2019-03-27T05:31:23.408Z,5.91
2019-03-27T05:32:23.397Z,5.96
2019-03-27T05:33:23.386Z,5.83
2019-03-27T05:34:23.375Z,5.95
2019-03-27T05:35:23.374Z,5.89
2019-03-27T05:36:23.372Z,5.89
2019-03-27T05:37:23.343Z,5.88
2019-03-27T05:38:23.332Z,5.92
2019-03-27T05:39:23.321Z,5.91
2019-03-27T05:40:23.311Z,5.95
2019-03-27T05:41:23.300Z,5.91
2019-03-27T05:42:23.305Z,5.89
2019-03-27T05:43:23.287Z,5.77
2019-03-27T05:44:23.269Z,5.85
2019-03-27T05:45:23.258Z,5.82
2019-03-27T05:46:26.404Z,5.83
2019-03-27T05:47:23.235Z,5.91
2019-03-27T05:48:23.236Z,5.83
2019-03-27T05:49:23.220Z,5.93
2019-03-27T05:50:23.205Z,5.88
2019-03-27T05:51:23.194Z,5.89
2019-03-27T05:52:23.181Z,5.77
2019-03-27T05:53:23.174Z,5.83
2019-03-27T05:54:23.173Z,5.86
2019-03-27T05:55:26.364Z,5.83
2019-03-27T05:56:23.139Z,5.98
2019-03-27T05:57:23.127Z,5.91
2019-03-27T05:58:23.117Z,5.93
2019-03-27T05:59:23.107Z,5.93
2019-03-27T06:00:23.106Z,6.01
2019-03-27T06:01:23.085Z,6.04
2019-03-27T06:02:23.075Z,6.06
2019-03-27T06:03:23.063Z,6.00
2019-03-27T06:04:23.052Z,6.01
2019-03-27T06:05:23.041Z,6.06
2019-03-27T06:06:23.046Z,6.03
2019-03-27T06:07:23.019Z,6.00
2019-03-27T06:08:23.008Z,6.00
2019-03-27T06:09:22.998Z,6.06
2019-03-27T06:10:22.988Z,5.92
2019-03-27T06:11:22.983Z,5.92
2019-03-27T06:12:22.982Z,5.89
2019-03-27T06:13:22.960Z,5.88
2019-03-27T06:14:22.944Z,5.86
2019-03-27T06:15:22.933Z,6.03
2019-03-27T06:16:22.920Z,5.93
2019-03-27T06:17:22.910Z,5.96
2019-03-27T06:18:22.909Z,5.96
2019-03-27T06:19:22.887Z,5.89
2019-03-27T06:20:22.877Z,5.91
2019-03-27T06:21:22.866Z,5.95
2019-03-27T06:22:22.859Z,5.89
2019-03-27T06:23:22.844Z,5.95
2019-03-27T06:24:22.844Z,5.93
2019-03-27T06:25:22.837Z,6.01
2019-03-27T06:26:22.822Z,6.01
2019-03-27T06:27:22.802Z,6.09
2019-03-27T06:28:22.791Z,6.09
2019-03-27T06:29:22.782Z,5.98
2019-03-27T06:30:22.779Z,6.03
2019-03-27T06:31:22.762Z,6.06
2019-03-27T06:32:22.747Z,6.09
2019-03-27T06:33:22.762Z,6.14
2019-03-27T06:34:22.800Z,6.13
2019-03-27T06:35:22.715Z,6.19
2019-03-27T06:36:22.721Z,6.16
2019-03-27T06:37:22.693Z,6.21
2019-03-27T06:38:22.682Z,6.28
2019-03-27T06:39:22.675Z,6.29
2019-03-27T06:40:22.661Z,6.30
2019-03-27T06:41:22.650Z,6.35
2019-03-27T06:42:22.650Z,6.35
2019-03-27T06:43:22.638Z,6.38
2019-03-27T06:44:22.619Z,6.41
2019-03-27T06:45:22.608Z,6.46
2019-03-27T06:46:22.608Z,6.48
2019-03-27T06:47:22.588Z,6.43
2019-03-27T06:48:26.429Z,6.53
2019-03-27T06:49:22.566Z,6.47
2019-03-27T06:50:22.561Z,6.53
2019-03-27T06:51:25.032Z,6.56
2019-03-27T06:52:22.534Z,6.61
2019-03-27T06:53:22.522Z,6.62
2019-03-27T06:54:22.536Z,6.59
2019-03-27T06:55:22.502Z,6.62
2019-03-27T06:56:22.493Z,6.62
2019-03-27T06:57:22.479Z,6.65
2019-03-27T06:58:22.469Z,6.59
2019-03-27T06:59:22.457Z,6.62
2019-03-27T07:00:22.457Z,6.59
2019-03-27T07:01:22.434Z,6.58
2019-03-27T07:02:22.424Z,6.53
2019-03-27T07:03:22.414Z,6.66
2019-03-27T07:04:22.403Z,6.59
2019-03-27T07:05:22.393Z,6.59
2019-03-27T07:06:22.402Z,6.59
2019-03-27T07:07:22.374Z,6.65
2019-03-27T07:08:22.423Z,6.61
2019-03-27T07:09:22.353Z,6.77
2019-03-27T07:10:22.343Z,6.80
2019-03-27T07:11:22.326Z,6.80
2019-03-27T07:12:22.327Z,6.84
2019-03-27T07:13:22.306Z,6.84
2019-03-27T07:14:22.293Z,6.79
2019-03-27T07:15:22.283Z,6.79
2019-03-27T07:16:22.271Z,6.97
2019-03-27T07:17:22.269Z,6.94
2019-03-27T07:18:22.265Z,6.91
2019-03-27T07:19:22.241Z,6.94
2019-03-27T07:20:22.228Z,6.98
2019-03-27T07:21:22.217Z,6.95
2019-03-27T07:22:22.206Z,6.91
2019-03-27T07:23:22.198Z,6.97
2019-03-27T07:24:22.197Z,7.02
2019-03-27T07:25:22.175Z,6.91
2019-03-27T07:26:22.167Z,6.90
2019-03-27T07:27:22.161Z,6.94
2019-03-27T07:28:22.145Z,6.80
2019-03-27T07:29:22.133Z,6.91
2019-03-27T07:30:22.140Z,6.94
2019-03-27T07:31:22.112Z,7.02
2019-03-27T07:32:22.102Z,6.97
2019-03-27T07:33:22.096Z,6.95
2019-03-27T07:34:22.080Z,6.97
2019-03-27T07:35:22.072Z,7.02
2019-03-27T07:36:22.070Z,7.12
2019-03-27T07:37:22.048Z,6.99
2019-03-27T07:38:22.038Z,7.05
2019-03-27T07:39:22.028Z,7.05
2019-03-27T07:40:22.015Z,7.12
2019-03-27T07:41:22.009Z,6.95
2019-03-27T07:42:22.005Z,7.02
2019-03-27T07:43:21.984Z,6.90
2019-03-27T07:44:21.974Z,6.95
2019-03-27T07:45:21.962Z,7.07
2019-03-27T07:46:21.953Z,7.07
2019-03-27T07:47:21.941Z,7.09
2019-03-27T07:48:21.950Z,7.08
2019-03-27T07:49:21.922Z,7.09
2019-03-27T07:50:21.909Z,7.12
2019-03-27T07:51:21.900Z,7.04
2019-03-27T07:52:21.888Z,7.09
2019-03-27T07:53:22.658Z,7.05
2019-03-27T07:54:21.884Z,7.08
2019-03-27T07:55:21.862Z,7.12
2019-03-27T07:56:21.845Z,7.20
2019-03-27T07:57:21.845Z,7.09
2019-03-27T07:58:21.825Z,7.12
2019-03-27T07:59:21.813Z,7.08
2019-03-27T08:00:21.814Z,7.08
2019-03-27T08:01:21.794Z,7.08
2019-03-27T08:02:21.784Z,7.02
2019-03-27T08:03:21.774Z,7.04
2019-03-27T08:04:21.760Z,7.05
2019-03-27T08:05:21.749Z,7.08
2019-03-27T08:06:21.752Z,7.08
2019-03-27T08:07:26.947Z,7.07
2019-03-27T08:08:22.716Z,7.15
2019-03-27T08:09:23.061Z,7.17
2019-03-27T08:10:21.698Z,7.23
2019-03-27T08:11:21.733Z,7.38
2019-03-27T08:12:21.694Z,7.38
2019-03-27T08:13:21.664Z,7.40
2019-03-27T08:14:21.652Z,7.50
2019-03-27T08:15:21.645Z,7.56
2019-03-27T08:16:21.632Z,7.66
2019-03-27T08:17:21.620Z,7.62
2019-03-27T08:18:21.621Z,7.62
2019-03-27T08:19:21.598Z,7.67
2019-03-27T08:20:21.587Z,7.75
2019-03-27T08:21:21.576Z,7.74
2019-03-27T08:22:21.565Z,7.69
2019-03-27T08:23:21.554Z,7.81
2019-03-27T08:24:21.553Z,7.85
2019-03-27T08:25:21.532Z,7.89
2019-03-27T08:26:21.521Z,7.92
2019-03-27T08:27:21.510Z,7.96
2019-03-27T08:28:21.499Z,7.97
2019-03-27T08:29:21.490Z,7.97
2019-03-27T08:30:21.492Z,8.02
2019-03-27T08:31:21.469Z,8.00
2019-03-27T08:32:21.459Z,8.08
2019-03-27T08:33:21.447Z,8.12
2019-03-27T08:34:21.437Z,8.22
2019-03-27T08:35:21.425Z,8.26
2019-03-27T08:36:21.424Z,8.28
2019-03-27T08:37:21.403Z,8.37
2019-03-27T08:38:21.404Z,8.60
2019-03-27T08:39:21.380Z,8.83
2019-03-27T08:40:21.370Z,8.97
2019-03-27T08:41:21.359Z,9.04
2019-03-27T08:42:21.367Z,9.16
2019-03-27T08:43:23.959Z,9.45
2019-03-27T08:44:21.328Z,9.58
2019-03-27T08:45:21.316Z,9.86
2019-03-27T08:46:21.305Z,10.06
2019-03-27T08:47:21.294Z,10.24
2019-03-27T08:48:21.294Z,10.33
2019-03-27T08:49:22.542Z,10.37
2019-03-27T08:50:21.262Z,10.30
2019-03-27T08:51:21.252Z,10.25
2019-03-27T08:52:21.239Z,10.19
2019-03-27T08:53:21.230Z,10.43
2019-03-27T08:54:21.230Z,10.55
2019-03-27T08:55:21.207Z,10.76
2019-03-27T08:56:21.197Z,10.86
2019-03-27T08:57:21.186Z,10.99
2019-03-27T08:58:21.175Z,11.09
2019-03-27T08:59:21.164Z,11.27
2019-03-27T09:00:21.464Z,11.38
2019-03-27T09:01:21.141Z,11.52
2019-03-27T09:02:21.153Z,11.53
2019-03-27T09:03:21.123Z,11.35
2019-03-27T09:04:21.110Z,11.16
2019-03-27T09:05:21.099Z,11.03
2019-03-27T09:06:33.072Z,11.06
2019-03-27T09:07:22.078Z,10.99
2019-03-27T09:08:21.067Z,11.09
2019-03-27T09:09:21.057Z,11.16
2019-03-27T09:10:21.046Z,11.07
2019-03-27T09:11:21.036Z,11.01
2019-03-27T09:12:21.035Z,11.03
2019-03-27T09:13:21.015Z,10.88
2019-03-27T09:14:21.003Z,10.76
2019-03-27T09:15:20.991Z,10.76
2019-03-27T09:16:20.980Z,10.83
2019-03-27T09:17:20.970Z,10.92
2019-03-27T09:18:21.003Z,10.89
2019-03-27T09:19:34.620Z,10.86
2019-03-27T09:20:21.938Z,10.78
2019-03-27T09:21:20.928Z,10.86
2019-03-27T09:22:20.919Z,10.71
2019-03-27T09:23:20.909Z,10.71
2019-03-27T09:24:20.987Z,10.63
2019-03-27T09:25:20.884Z,10.66
2019-03-27T09:26:20.873Z,10.60
2019-03-27T09:27:20.865Z,10.71
2019-03-27T09:28:20.855Z,10.86
2019-03-27T09:29:20.840Z,10.91
2019-03-27T09:30:20.847Z,11.02
2019-03-27T09:31:20.820Z,11.16
2019-03-27T09:32:20.810Z,11.06
2019-03-27T09:33:20.798Z,11.01
2019-03-27T09:34:20.787Z,11.01
2019-03-27T09:35:20.775Z,11.09
2019-03-27T09:36:20.776Z,11.13
2019-03-27T09:37:20.760Z,11.02
2019-03-27T09:38:20.746Z,11.21
2019-03-27T09:39:20.732Z,11.24
2019-03-27T09:40:20.731Z,11.19
2019-03-27T09:41:21.583Z,11.21
2019-03-27T09:42:20.711Z,11.21
2019-03-27T09:43:20.687Z,11.20
2019-03-27T09:44:20.677Z,11.25
2019-03-27T09:45:20.666Z,11.38
2019-03-27T09:46:20.655Z,11.39
2019-03-27T09:47:20.644Z,11.36
2019-03-27T09:48:20.644Z,11.36
2019-03-27T09:49:20.625Z,11.31
2019-03-27T09:50:20.612Z,11.27
2019-03-27T09:51:20.601Z,11.25
2019-03-27T09:52:20.590Z,11.21
2019-03-27T09:53:20.579Z,11.25
2019-03-27T09:54:20.602Z,11.17
2019-03-27T09:55:20.560Z,11.13
2019-03-27T09:56:20.547Z,11.11
2019-03-27T09:57:20.536Z,11.16
2019-03-27T09:58:20.527Z,11.24
2019-03-27T09:59:20.520Z,11.21
2019-03-27T10:00:20.518Z,11.35
2019-03-27T10:01:20.492Z,11.36
2019-03-27T10:02:20.482Z,11.21
2019-03-27T10:03:20.470Z,11.29
2019-03-27T10:04:20.459Z,11.38
2019-03-27T10:05:20.449Z,11.31
2019-03-27T10:06:20.458Z,11.38
2019-03-27T10:07:20.428Z,11.43
2019-03-27T10:08:20.415Z,11.38
2019-03-27T10:09:20.404Z,11.38
2019-03-27T10:10:20.393Z,11.39
2019-03-27T10:11:23.617Z,11.50
2019-03-27T10:12:20.388Z,11.47
2019-03-27T10:13:20.368Z,11.43
2019-03-27T10:14:20.349Z,11.41
2019-03-27T10:15:20.339Z,11.32
2019-03-27T10:16:20.330Z,11.19
2019-03-27T10:17:20.316Z,11.21
2019-03-27T10:18:20.320Z,11.20
2019-03-27T10:19:20.294Z,11.28
2019-03-27T10:20:20.283Z,11.29
2019-03-27T10:21:20.273Z,11.38
2019-03-27T10:22:20.270Z,11.32
2019-03-27T10:23:20.253Z,11.38
2019-03-27T10:24:20.257Z,11.38
2019-03-27T10:25:20.229Z,11.41
2019-03-27T10:26:20.218Z,11.43
2019-03-27T10:27:20.209Z,11.47
2019-03-27T10:28:20.199Z,11.49
2019-03-27T10:29:20.186Z,11.54
2019-03-27T10:30:20.185Z,11.65
2019-03-27T10:31:20.166Z,11.56
2019-03-27T10:32:20.170Z,11.54
2019-03-27T10:33:20.142Z,11.62
2019-03-27T10:34:20.139Z,11.59
2019-03-27T10:35:20.122Z,11.62
2019-03-27T10:36:20.118Z,11.54
2019-03-27T10:37:20.098Z,11.57
2019-03-27T10:38:20.100Z,11.65
2019-03-27T10:39:20.076Z,11.70
2019-03-27T10:40:20.065Z,11.70
2019-03-27T10:41:20.053Z,11.67
2019-03-27T10:42:20.060Z,11.70
2019-03-27T10:43:20.032Z,11.68
2019-03-27T10:44:20.028Z,11.67
2019-03-27T10:45:20.011Z,11.75
2019-03-27T10:46:20.012Z,11.75
2019-03-27T10:47:19.990Z,11.68
2019-03-27T10:48:20.013Z,11.82
2019-03-27T10:49:19.967Z,11.80
2019-03-27T10:50:19.960Z,11.74
2019-03-27T10:51:19.944Z,11.62
2019-03-27T10:52:19.934Z,11.70
2019-03-27T10:53:19.922Z,11.72
2019-03-27T10:54:19.922Z,11.77
2019-03-27T10:55:19.901Z,11.68
2019-03-27T10:56:19.890Z,11.82
2019-03-27T10:57:19.880Z,11.82
2019-03-27T10:58:19.871Z,11.78
2019-03-27T10:59:19.863Z,11.82
2019-03-27T11:00:19.859Z,11.83
2019-03-27T11:01:19.838Z,11.85
2019-03-27T11:02:19.826Z,11.83
2019-03-27T11:03:19.816Z,11.90
2019-03-27T11:04:19.806Z,11.87
2019-03-27T11:05:19.794Z,11.83
2019-03-27T11:06:19.795Z,11.85
2019-03-27T11:07:19.772Z,11.85
2019-03-27T11:08:19.762Z,11.80
2019-03-27T11:09:19.753Z,11.71
2019-03-27T11:10:19.740Z,11.74
2019-03-27T11:11:19.729Z,11.86
2019-03-27T11:12:19.728Z,11.82
2019-03-27T11:13:19.706Z,11.82
2019-03-27T11:14:19.699Z,11.86
2019-03-27T11:15:19.686Z,11.80
2019-03-27T11:16:19.678Z,11.87
2019-03-27T11:17:19.664Z,11.89
2019-03-27T11:18:19.663Z,11.85
2019-03-27T11:19:19.644Z,11.89
2019-03-27T11:20:30.213Z,11.87
2019-03-27T11:21:20.621Z,11.96
2019-03-27T11:22:19.610Z,11.97
2019-03-27T11:23:19.600Z,11.99
2019-03-27T11:24:19.600Z,11.93
2019-03-27T11:25:19.580Z,11.93
2019-03-27T11:26:19.568Z,12.04
2019-03-27T11:27:19.557Z,12.06
2019-03-27T11:28:19.546Z,12.12
2019-03-27T11:29:19.534Z,12.13
2019-03-27T11:30:19.534Z,12.29
2019-03-27T11:31:19.514Z,12.26
2019-03-27T11:32:19.504Z,12.24
2019-03-27T11:33:19.492Z,12.41
2019-03-27T11:34:19.485Z,12.42
2019-03-27T11:35:19.470Z,12.44
2019-03-27T11:36:19.470Z,12.39
2019-03-27T11:37:19.458Z,12.41
2019-03-27T11:38:19.438Z,12.41
2019-03-27T11:39:19.427Z,12.52
2019-03-27T11:40:19.417Z,12.52
2019-03-27T11:41:19.407Z,12.56
2019-03-27T11:42:19.406Z,12.64
2019-03-27T11:43:19.384Z,12.60
2019-03-27T11:44:19.374Z,12.64
2019-03-27T11:45:19.363Z,12.62
2019-03-27T11:46:19.353Z,12.71
2019-03-27T11:47:19.341Z,12.78
2019-03-27T11:48:19.342Z,12.69
2019-03-27T11:49:19.322Z,12.81
2019-03-27T11:50:19.308Z,12.79
2019-03-27T11:51:19.299Z,12.89
2019-03-27T11:52:19.287Z,12.88
2019-03-27T11:53:19.275Z,12.88
2019-03-27T11:54:19.277Z,12.87
2019-03-27T11:55:19.254Z,12.89
2019-03-27T11:56:19.242Z,12.84
2019-03-27T11:57:19.232Z,12.88
2019-03-27T11:58:19.221Z,12.82
2019-03-27T11:59:19.208Z,12.79
2019-03-27T12:00:19.208Z,12.67
2019-03-27T12:01:19.187Z,12.85
2019-03-27T12:02:19.216Z,12.69
2019-03-27T12:03:19.166Z,12.79
2019-03-27T12:04:19.156Z,12.75
2019-03-27T12:05:19.143Z,12.87
2019-03-27T12:06:19.146Z,12.87
2019-03-27T12:07:19.121Z,12.88
2019-03-27T12:08:19.113Z,12.70
2019-03-27T12:09:19.099Z,12.71
2019-03-27T12:10:19.088Z,12.71
2019-03-27T12:11:19.077Z,12.85
2019-03-27T12:12:19.077Z,12.49
2019-03-27T12:13:19.056Z,12.42
2019-03-27T12:14:19.045Z,12.39
2019-03-27T12:15:19.034Z,12.41
2019-03-27T12:16:19.026Z,12.41
2019-03-27T12:17:19.012Z,12.45
2019-03-27T12:18:19.012Z,12.39
2019-03-27T12:19:18.990Z,12.38
2019-03-27T12:20:18.979Z,12.45
2019-03-27T12:21:18.968Z,12.49
2019-03-27T12:22:18.958Z,12.44
2019-03-27T12:23:18.948Z,12.44
2019-03-27T12:24:18.949Z,12.34
2019-03-27T12:25:18.926Z,12.44
2019-03-27T12:26:18.919Z,12.48
2019-03-27T12:27:18.905Z,12.59
2019-03-27T12:28:18.894Z,12.62
2019-03-27T12:29:18.885Z,12.67
2019-03-27T12:30:18.893Z,12.69
2019-03-27T12:31:18.862Z,12.67
2019-03-27T12:32:18.852Z,12.77
2019-03-27T12:33:18.840Z,12.74
2019-03-27T12:34:18.830Z,12.71
2019-03-27T12:35:18.820Z,12.77
2019-03-27T12:36:18.819Z,12.70
2019-03-27T12:37:18.798Z,12.69
2019-03-27T12:38:18.787Z,12.70
2019-03-27T12:39:18.777Z,12.82
2019-03-27T12:40:18.766Z,12.75
2019-03-27T12:41:18.755Z,12.75
2019-03-27T12:42:18.756Z,12.70
2019-03-27T12:43:18.736Z,12.70
2019-03-27T12:44:18.723Z,12.71
2019-03-27T12:45:18.713Z,12.69
2019-03-27T12:46:18.701Z,12.79
2019-03-27T12:47:18.694Z,12.79
2019-03-27T12:48:18.689Z,12.82
2019-03-27T12:49:18.668Z,12.84
2019-03-27T12:50:18.657Z,12.81
2019-03-27T12:51:18.648Z,12.75
2019-03-27T12:52:18.638Z,12.79
2019-03-27T12:53:18.626Z,12.82
2019-03-27T12:54:18.629Z,12.82
2019-03-27T12:55:18.604Z,12.81
2019-03-27T12:56:18.593Z,12.88
2019-03-27T12:57:18.582Z,12.85
2019-03-27T12:58:18.571Z,12.81
2019-03-27T12:59:18.562Z,12.82
2019-03-27T13:00:18.562Z,12.79
2019-03-27T13:01:18.543Z,12.87
2019-03-27T13:02:18.529Z,12.85
2019-03-27T13:03:18.518Z,12.89
2019-03-27T13:04:18.508Z,12.99
2019-03-27T13:05:18.497Z,13.06
2019-03-27T13:06:18.496Z,13.02
2019-03-27T13:07:18.475Z,13.02
2019-03-27T13:08:18.464Z,12.97
2019-03-27T13:09:18.456Z,12.87